createdAt,value
2022-09-26T00:02:30.154Z,23.5
2022-09-26T00:07:48.529Z,23.5
2022-09-26T00:13:06.705Z,23.5
2022-09-26T00:18:25.194Z,23.5
2022-09-26T00:23:43.799Z,23.5
2022-09-26T00:29:02.259Z,23.5
2022-09-26T00:34:20.763Z,23.5
2022-09-26T00:39:39.002Z,23.5
2022-09-26T00:44:57.193Z,23.5
2022-09-26T00:50:15.691Z,23.5
2022-09-26T00:55:34.196Z,23.5
2022-09-26T01:00:52.501Z,23.5
2022-09-26T01:06:10.879Z,23.5
2022-09-26T01:11:29.758Z,23.5
2022-09-26T01:16:48.436Z,23.5
2022-09-26T01:22:07.074Z,23.6
2022-09-26T01:27:25.596Z,23.6
2022-09-26T01:32:43.779Z,23.5
2022-09-26T01:38:02.272Z,23.6
2022-09-26T01:43:20.511Z,23.6
2022-09-26T01:48:38.985Z,23.6
2022-09-26T01:53:57.476Z,23.5
2022-09-26T01:59:15.791Z,23.6
2022-09-26T02:04:34.423Z,23.6
2022-09-26T02:09:53.205Z,23.6
2022-09-26T02:15:11.716Z,23.6
2022-09-26T02:20:29.626Z,23.6
2022-09-26T02:25:47.849Z,23.6
2022-09-26T02:31:06.169Z,23.6
2022-09-26T02:36:24.634Z,23.6
2022-09-26T02:41:42.569Z,23.5
2022-09-26T02:47:01.370Z,23.5
2022-09-26T02:52:19.544Z,23.6
2022-09-26T02:57:37.770Z,23.6
2022-09-26T03:02:55.991Z,23.6
2022-09-26T03:08:14.463Z,23.6
2022-09-26T03:13:33.236Z,23.6
2022-09-26T03:18:51.521Z,23.5
2022-09-26T03:24:09.421Z,23.5
2022-09-26T03:29:27.908Z,23.5
2022-09-26T03:34:46.704Z,23.6
2022-09-26T03:40:04.890Z,23.6
2022-09-26T03:45:23.742Z,23.6
2022-09-26T03:50:41.869Z,23.6
2022-09-26T03:56:00.327Z,23.6
2022-09-26T04:01:18.800Z,23.6
2022-09-26T04:06:37.034Z,23.5
2022-09-26T04:11:55.944Z,23.5
2022-09-26T04:17:14.423Z,23.5
2022-09-26T04:22:32.946Z,23.5
2022-09-26T04:27:51.409Z,23.6
2022-09-26T04:33:09.623Z,23.6
2022-09-26T04:38:28.503Z,23.4
2022-09-26T04:43:47.021Z,23.1
2022-09-26T04:49:05.569Z,22.9
2022-09-26T04:54:24.203Z,22.8
2022-09-26T04:59:42.667Z,22.6
2022-09-26T05:05:01.143Z,22.5
2022-09-26T05:10:19.761Z,22.5
2022-09-26T05:15:38.211Z,22.7
2022-09-26T05:20:56.424Z,22.8
2022-09-26T05:26:14.378Z,22.8
2022-09-26T05:31:33.129Z,22.9
2022-09-26T05:36:51.628Z,22.9
2022-09-26T05:41:54.506Z,23
2022-09-26T05:47:13.980Z,23
2022-09-26T05:52:32.280Z,23
2022-09-26T05:57:50.260Z,23
2022-09-26T06:03:08.795Z,23.1
2022-09-26T06:08:27.560Z,23.1
2022-09-26T06:13:46.366Z,23.1
2022-09-26T06:19:04.585Z,23.1
2022-09-26T06:24:22.797Z,23.1
2022-09-26T06:29:41.038Z,23.2
2022-09-26T06:34:59.492Z,23.2
2022-09-26T06:40:18.386Z,23.2
2022-09-26T06:45:36.386Z,23.3
2022-09-26T06:50:54.846Z,23.3
2022-09-26T06:56:13.058Z,23.3
2022-09-26T07:01:35.198Z,23.3
2022-09-26T07:06:53.745Z,23.3
2022-09-26T07:12:16.438Z,23.3
2022-09-26T07:17:35.210Z,23.3
2022-09-26T07:22:53.821Z,23.3
2022-09-26T07:28:11.771Z,23.3
2022-09-26T07:33:30.254Z,23.3
2022-09-26T07:38:48.206Z,23.3
2022-09-26T07:50:45.891Z,23.3
2022-09-26T07:56:04.709Z,23.4
2022-09-26T08:01:23.342Z,23.4
2022-09-26T08:06:41.903Z,23.4
2022-09-26T08:12:00.431Z,23.5
2022-09-26T08:17:18.623Z,23.5
2022-09-26T08:22:37.383Z,23.5
2022-09-26T08:27:56.174Z,23.5
2022-09-26T08:33:14.909Z,23.6
2022-09-26T08:38:33.678Z,23.6
2022-09-26T08:43:52.186Z,23.7
2022-09-26T08:49:10.446Z,23.6
2022-09-26T08:54:28.642Z,23.7
2022-09-26T08:59:47.164Z,23.7
2022-09-26T09:05:05.607Z,23.7
2022-09-26T09:10:24.109Z,23.7
2022-09-26T09:15:42.997Z,23.8
2022-09-26T09:21:01.779Z,23.8
2022-09-26T09:33:09.382Z,23.8
2022-09-26T09:38:27.574Z,23.8
2022-09-26T09:43:46.061Z,23.9
2022-09-26T09:49:04.558Z,23.9
2022-09-26T09:54:23.010Z,23.9
2022-09-26T09:59:41.497Z,23.9
2022-09-26T10:05:00.369Z,23.9
2022-09-26T10:10:18.540Z,23.9
2022-09-26T10:15:37.465Z,24
2022-09-26T10:20:56.076Z,24
2022-09-26T10:26:14.274Z,24
2022-09-26T10:31:32.898Z,24
2022-09-26T10:36:51.240Z,24
2022-09-26T10:42:09.975Z,24
2022-09-26T10:47:28.730Z,24
2022-09-26T10:52:47.263Z,24
2022-09-26T10:58:13.809Z,24
2022-09-26T11:03:33.356Z,24
2022-09-26T11:08:51.900Z,24
2022-09-26T11:14:10.677Z,24
2022-09-26T11:19:28.687Z,24
2022-09-26T11:24:47.472Z,24
2022-09-26T11:30:06.197Z,24
2022-09-26T11:35:24.400Z,24
2022-09-26T11:40:42.752Z,24
2022-09-26T11:46:01.182Z,24
2022-09-26T11:51:19.457Z,24
2022-09-26T11:56:38.017Z,24
2022-09-26T12:01:56.759Z,24
2022-09-26T12:07:14.959Z,24
2022-09-26T12:12:40.608Z,24
2022-09-26T12:17:59.234Z,24
2022-09-26T12:23:18.016Z,24
2022-09-26T12:28:36.526Z,24
2022-09-26T12:33:54.722Z,24
2022-09-26T12:39:13.342Z,24
2022-09-26T12:44:32.055Z,24
2022-09-26T12:49:49.956Z,24
2022-09-26T12:55:08.723Z,24
2022-09-26T13:00:27.259Z,24
2022-09-26T13:05:45.689Z,23.9
2022-09-26T13:11:03.903Z,23.9
2022-09-26T13:16:22.291Z,23.9
2022-09-26T13:21:40.605Z,23.9
2022-09-26T13:26:59.369Z,23.9
2022-09-26T13:32:18.150Z,23.9
2022-09-26T13:37:36.314Z,23.9
2022-09-26T13:43:02.762Z,23.9
2022-09-26T13:48:21.174Z,23.9
2022-09-26T13:53:39.057Z,23.9
2022-09-26T13:58:57.285Z,23.9
2022-09-26T14:04:15.708Z,23.9
2022-09-26T14:09:34.413Z,23.9
2022-09-26T14:14:53.187Z,23.9
2022-09-26T14:20:11.978Z,23.9
2022-09-26T14:25:30.154Z,23.9
2022-09-26T14:30:49.071Z,23.9
2022-09-26T14:36:07.586Z,23.9
2022-09-26T14:41:26.046Z,23.9
2022-09-26T14:46:44.758Z,23.9
2022-09-26T14:52:10.466Z,23.9
2022-09-26T14:57:29.758Z,23.9
2022-09-26T15:02:48.072Z,23.9
2022-09-26T15:08:06.022Z,23.8
2022-09-26T15:13:24.784Z,23.8
2022-09-26T15:18:43.264Z,23.8
2022-09-26T15:24:01.781Z,23.8
2022-09-26T15:29:19.957Z,23.8
2022-09-26T15:34:38.161Z,23.8
2022-09-26T15:39:56.397Z,23.8
2022-09-26T15:45:14.589Z,23.8
2022-09-26T15:50:32.777Z,23.8
2022-09-26T15:55:50.967Z,23.8
2022-09-26T16:01:09.114Z,23.8
2022-09-26T16:06:27.302Z,23.8
2022-09-26T16:11:45.809Z,23.8
2022-09-26T16:17:04.030Z,23.8
2022-09-26T16:22:22.546Z,23.8
2022-09-26T16:27:41.021Z,23.8
2022-09-26T16:32:59.474Z,23.8
2022-09-26T16:38:18.229Z,23.8
2022-09-26T16:43:36.762Z,23.8
2022-09-26T16:48:55.214Z,23.8
2022-09-26T16:54:13.851Z,23.8
2022-09-26T16:59:31.969Z,23.8
2022-09-26T17:04:50.140Z,23.8
2022-09-26T17:10:08.894Z,23.8
2022-09-26T17:15:27.615Z,23.8
2022-09-26T17:20:46.301Z,23.8
2022-09-26T17:26:04.514Z,23.8
2022-09-26T17:31:08.534Z,23.8
2022-09-26T17:36:27.147Z,23.7
2022-09-26T17:41:45.864Z,23.7
2022-09-26T17:47:04.062Z,23.8
2022-09-26T17:52:06.602Z,23.8
2022-09-26T17:57:30.893Z,23.8
2022-09-26T18:02:49.233Z,23.8
2022-09-26T18:08:08.014Z,23.8
2022-09-26T18:13:26.510Z,23.8
2022-09-26T18:18:45.145Z,23.8
2022-09-26T18:24:03.945Z,23.8
2022-09-26T18:29:22.841Z,23.8
2022-09-26T18:34:41.511Z,23.8
2022-09-26T18:40:04.741Z,23.8
2022-09-26T18:45:22.978Z,23.8
2022-09-26T18:50:41.853Z,23.8
2022-09-26T18:56:00.402Z,23.8
2022-09-26T19:01:19.260Z,23.8
2022-09-26T19:06:37.806Z,23.8
2022-09-26T19:11:56.399Z,23.8
2022-09-26T19:17:15.340Z,23.8
2022-09-26T19:22:33.846Z,23.9
2022-09-26T19:27:52.583Z,24
2022-09-26T19:33:11.344Z,24
2022-09-26T19:38:29.587Z,24
2022-09-26T19:43:48.324Z,24
2022-09-26T19:49:07.139Z,24
2022-09-26T19:54:25.931Z,24
2022-09-26T19:59:44.111Z,24
2022-09-26T20:05:02.604Z,24
2022-09-26T20:10:21.123Z,24
2022-09-26T20:15:39.282Z,24
2022-09-26T20:20:57.227Z,24
2022-09-26T20:26:16.027Z,24
2022-09-26T20:31:34.760Z,24
2022-09-26T20:36:52.954Z,24
2022-09-26T20:42:11.229Z,24
2022-09-26T20:47:29.966Z,24
2022-09-26T20:52:48.179Z,24
2022-09-26T20:58:06.696Z,24
2022-09-26T21:03:25.159Z,24
2022-09-26T21:08:43.373Z,24
2022-09-26T21:25:03.218Z,24
2022-09-26T21:30:21.118Z,24
2022-09-26T21:35:39.329Z,24
2022-09-26T21:40:57.902Z,23.9
2022-09-26T21:46:15.996Z,23.9
2022-09-26T21:51:34.325Z,23.9
2022-09-26T21:56:53.110Z,23.9
2022-09-26T22:02:11.082Z,23.9
2022-09-26T22:07:29.407Z,23.9
2022-09-26T22:12:47.912Z,23.9
2022-09-26T22:18:06.106Z,23.9
2022-09-26T22:23:24.858Z,23.9
2022-09-26T22:28:43.380Z,23.9
2022-09-26T22:34:01.834Z,23.9
2022-09-26T22:39:20.317Z,23.9
2022-09-26T22:44:38.834Z,23.9
2022-09-26T22:49:57.387Z,23.9
2022-09-26T22:55:15.638Z,23.9
2022-09-26T23:00:34.165Z,23.9
2022-09-26T23:05:52.621Z,23.9
2022-09-26T23:11:11.126Z,23.9
2022-09-26T23:16:29.753Z,23.9
2022-09-26T23:21:48.153Z,23.9
2022-09-26T23:27:06.912Z,23.9
2022-09-26T23:32:25.720Z,24
2022-09-26T23:37:44.472Z,23.9
2022-09-26T23:43:02.963Z,24
2022-09-26T23:48:21.216Z,24
2022-09-26T23:53:24.334Z,24
2022-09-26T23:58:43.098Z,24
